createdAt,value
2023-02-11T00:00:18.048Z,89.43
2023-02-11T00:02:47.541Z,90.44
2023-02-11T00:05:14.405Z,90.09
2023-02-11T00:07:40.850Z,89.51
2023-02-11T00:10:08.514Z,89.68
2023-02-11T00:12:36.330Z,89.96
2023-02-11T00:15:03.445Z,90.31
2023-02-11T00:17:29.979Z,89.95
2023-02-11T00:19:56.482Z,90.05
2023-02-11T00:22:22.999Z,90.37
2023-02-11T00:24:49.547Z,89.54
2023-02-11T00:27:16.077Z,89.69
2023-02-11T00:29:42.520Z,90.12
2023-02-11T00:32:10.581Z,89.75
2023-02-11T00:34:38.056Z,90.18
2023-02-11T00:37:05.489Z,90.61
2023-02-11T00:39:32.539Z,89.90
2023-02-11T00:41:59.105Z,90.39
2023-02-11T00:44:25.594Z,89.81
2023-02-11T00:46:52.122Z,89.99
2023-02-11T00:49:18.612Z,90.32
2023-02-11T00:51:45.037Z,90.10
2023-02-11T00:54:12.326Z,90.33
2023-02-11T00:56:39.046Z,89.91
2023-02-11T00:59:05.589Z,90.16
2023-02-11T01:01:32.114Z,90.15
2023-02-11T01:03:58.638Z,90.18
2023-02-11T01:06:25.128Z,90.45
2023-02-11T01:08:51.703Z,90.28
2023-02-11T01:11:20.612Z,90.78
2023-02-11T01:13:48.560Z,90.73
2023-02-11T01:16:16.061Z,91.19
2023-02-11T01:18:44.215Z,91.00
2023-02-11T01:21:11.445Z,90.78
2023-02-11T01:23:37.941Z,90.89
2023-02-11T01:26:05.213Z,90.95
2023-02-11T01:28:31.922Z,90.96
2023-02-11T01:31:01.335Z,91.54
2023-02-11T01:33:28.092Z,92.05
2023-02-11T01:35:54.581Z,91.99
2023-02-11T01:38:26.129Z,91.58
2023-02-11T01:40:55.957Z,91.97
2023-02-11T01:43:24.093Z,92.04
2023-02-11T01:46:16.593Z,91.71
2023-02-11T01:48:47.180Z,91.65
2023-02-11T01:51:22.554Z,91.65
2023-02-11T01:54:08.794Z,91.81
2023-02-11T01:56:57.462Z,91.42
2023-02-11T01:59:32.085Z,92.07
2023-02-11T02:02:05.108Z,92.11
2023-02-11T02:04:39.880Z,91.67
2023-02-11T02:07:12.022Z,92.16
2023-02-11T02:09:43.087Z,92.49
2023-02-11T02:12:09.670Z,92.32
2023-02-11T02:14:41.126Z,91.71
2023-02-11T02:17:17.236Z,92.00
2023-02-11T02:20:05.537Z,91.96
2023-02-11T02:23:03.231Z,91.87
2023-02-11T02:25:32.377Z,91.83
2023-02-11T02:28:17.990Z,91.94
2023-02-11T02:31:02.993Z,92.13
2023-02-11T02:33:46.322Z,92.27
2023-02-11T02:36:22.771Z,91.69
2023-02-11T02:39:05.670Z,92.36
2023-02-11T02:41:35.853Z,92.99
2023-02-11T02:44:02.553Z,92.73
2023-02-11T02:46:33.142Z,93.12
2023-02-11T02:49:00.467Z,92.86
2023-02-11T02:51:49.529Z,92.49
2023-02-11T02:54:35.785Z,92.71
2023-02-11T03:00:42.323Z,93.42
2023-02-11T03:03:20.355Z,92.87
2023-02-11T03:05:58.635Z,93.14
2023-02-11T03:08:34.468Z,92.88
2023-02-11T03:11:03.359Z,93.00
2023-02-11T03:13:33.712Z,93.23
2023-02-11T03:16:25.379Z,93.28
2023-02-11T03:19:00.150Z,93.07
2023-02-11T03:21:27.813Z,92.58
2023-02-11T03:23:56.614Z,93.17
2023-02-11T03:26:44.003Z,93.05
2023-02-11T03:29:19.963Z,93.51
2023-02-11T03:32:08.065Z,93.53
2023-02-11T03:34:57.539Z,93.26
2023-02-11T03:37:28.982Z,93.43
2023-02-11T03:40:17.341Z,93.88
2023-02-11T03:42:48.760Z,94.43
2023-02-11T03:45:19.886Z,93.51
2023-02-11T03:47:51.683Z,93.95
2023-02-11T03:50:19.647Z,94.20
2023-02-11T03:52:49.867Z,93.42
2023-02-11T03:55:19.168Z,94.26
2023-02-11T03:57:47.014Z,94.89
2023-02-11T04:00:14.367Z,94.54
2023-02-11T04:02:41.387Z,94.72
2023-02-11T04:05:10.666Z,94.86
2023-02-11T04:07:37.151Z,95.18
2023-02-11T04:10:04.455Z,94.59
2023-02-11T04:12:30.885Z,94.98
2023-02-11T04:14:57.344Z,94.52
2023-02-11T04:17:24.109Z,95.16
2023-02-11T04:19:50.512Z,95.21
2023-02-11T04:22:16.949Z,94.72
2023-02-11T04:24:44.089Z,94.54
2023-02-11T04:27:10.605Z,95.27
2023-02-11T04:29:38.128Z,95.07
2023-02-11T04:32:04.869Z,94.68
2023-02-11T04:34:31.606Z,94.81
2023-02-11T04:36:58.023Z,94.59
2023-02-11T04:39:24.588Z,94.57
2023-02-11T04:41:51.211Z,94.46
2023-02-11T04:44:17.684Z,94.41
2023-02-11T04:46:44.995Z,94.54
2023-02-11T04:49:16.263Z,94.50
2023-02-11T04:51:43.082Z,95.18
2023-02-11T04:54:09.522Z,94.50
2023-02-11T04:56:36.163Z,94.68
2023-02-11T04:59:03.846Z,94.24
2023-02-11T05:01:30.453Z,94.14
2023-02-11T05:03:57.971Z,94.13
2023-02-11T05:06:24.722Z,94.24
2023-02-11T05:08:51.343Z,94.47
2023-02-11T05:11:20.430Z,94.72
2023-02-11T05:13:47.309Z,94.51
2023-02-11T05:16:14.952Z,94.33
2023-02-11T05:18:42.937Z,94.02
2023-02-11T05:21:13.455Z,95.14
2023-02-11T05:23:40.697Z,94.38
2023-02-11T05:26:08.541Z,95.07
2023-02-11T05:28:36.189Z,94.64
2023-02-11T05:31:03.229Z,94.91
2023-02-11T05:33:29.886Z,94.42
2023-02-11T05:36:06.463Z,94.74
2023-02-11T05:38:33.315Z,94.28
2023-02-11T05:41:00.648Z,94.41
2023-02-11T05:43:27.654Z,94.60
2023-02-11T05:45:54.431Z,94.62
2023-02-11T05:48:21.144Z,95.23
2023-02-11T05:50:47.652Z,94.78
2023-02-11T05:53:14.345Z,94.74
2023-02-11T05:55:41.003Z,94.78
2023-02-11T05:58:08.507Z,95.24
2023-02-11T06:00:35.340Z,95.09
2023-02-11T06:03:01.938Z,95.53
2023-02-11T06:05:28.444Z,95.13
2023-02-11T06:07:54.958Z,95.04
2023-02-11T06:10:21.457Z,94.66
2023-02-11T06:12:48.401Z,95.03
2023-02-11T06:15:14.967Z,94.81
2023-02-11T06:17:41.374Z,94.97
2023-02-11T06:20:10.419Z,94.78
2023-02-11T06:22:37.031Z,94.92
2023-02-11T06:25:03.835Z,94.88
2023-02-11T06:27:30.688Z,94.80
2023-02-11T06:29:57.109Z,95.78
2023-02-11T06:32:42.707Z,95.32
2023-02-11T06:35:12.150Z,95.00
2023-02-11T06:37:39.171Z,95.48
2023-02-11T06:40:06.324Z,94.95
2023-02-11T06:42:32.824Z,94.84
2023-02-11T06:44:59.315Z,95.44
2023-02-11T06:47:25.867Z,95.33
2023-02-11T06:49:52.367Z,94.77
2023-02-11T06:52:18.804Z,95.95
2023-02-11T06:54:45.249Z,95.47
2023-02-11T06:57:11.682Z,95.25
2023-02-11T06:59:38.131Z,94.83
2023-02-11T07:02:04.615Z,95.86
2023-02-11T07:04:31.137Z,95.01
2023-02-11T07:06:57.644Z,95.30
2023-02-11T07:09:24.057Z,95.58
2023-02-11T07:11:50.498Z,95.16
2023-02-11T07:14:16.956Z,95.95
2023-02-11T07:16:43.431Z,95.34
2023-02-11T07:19:10.509Z,95.42
2023-02-11T07:21:37.235Z,95.22
2023-02-11T07:24:10.778Z,95.15
2023-02-11T07:26:37.628Z,95.91
2023-02-11T07:29:04.110Z,95.97
2023-02-11T07:31:30.992Z,95.13
2023-02-11T07:34:00.110Z,95.74
2023-02-11T07:36:27.336Z,95.17
2023-02-11T07:38:53.958Z,95.50
2023-02-11T07:41:22.676Z,95.45
2023-02-11T07:43:49.840Z,95.07
2023-02-11T07:46:19.309Z,95.27
2023-02-11T07:48:45.856Z,95.13
2023-02-11T07:51:18.218Z,95.12
2023-02-11T07:53:45.253Z,95.43
2023-02-11T07:56:13.644Z,94.74
2023-02-11T07:58:42.110Z,95.27
2023-02-11T08:01:12.252Z,94.89
2023-02-11T08:03:39.363Z,94.99
2023-02-11T08:06:07.562Z,95.08
2023-02-11T08:08:34.261Z,94.92
2023-02-11T08:11:08.709Z,94.56
2023-02-11T08:13:35.783Z,94.00
2023-02-11T08:16:03.065Z,94.50
2023-02-11T08:18:30.399Z,94.33
2023-02-11T08:20:56.820Z,94.25
2023-02-11T08:23:23.254Z,93.58
2023-02-11T08:25:49.666Z,94.39
2023-02-11T08:28:16.154Z,94.21
2023-02-11T08:30:42.644Z,93.29
2023-02-11T08:33:09.123Z,93.52
2023-02-11T08:35:36.962Z,93.37
2023-02-11T08:38:03.438Z,93.45
2023-02-11T08:40:29.912Z,93.91
2023-02-11T08:42:56.435Z,93.47
2023-02-11T08:45:22.922Z,93.39
2023-02-11T08:47:49.344Z,93.69
2023-02-11T08:50:15.818Z,93.41
2023-02-11T08:52:43.037Z,93.11
2023-02-11T08:55:09.521Z,93.29
2023-02-11T08:57:36.081Z,93.19
2023-02-11T09:00:03.578Z,92.83
2023-02-11T09:02:30.082Z,92.79
2023-02-11T09:04:56.606Z,92.47
2023-02-11T09:07:23.077Z,92.53
2023-02-11T09:09:49.493Z,91.96
2023-02-11T09:12:15.983Z,91.62
2023-02-11T09:14:43.020Z,91.71
2023-02-11T09:17:09.668Z,91.13
2023-02-11T09:19:36.165Z,91.56
2023-02-11T09:22:02.649Z,91.31
2023-02-11T09:24:29.078Z,91.15
2023-02-11T09:26:55.554Z,90.86
2023-02-11T09:29:22.038Z,90.88
2023-02-11T09:31:48.813Z,90.53
2023-02-11T09:34:15.912Z,90.07
2023-02-11T09:36:42.448Z,90.22
2023-02-11T09:39:13.932Z,90.17
2023-02-11T09:42:01.524Z,89.71
2023-02-11T09:44:36.116Z,89.43
2023-02-11T09:47:07.126Z,89.31
2023-02-11T09:49:47.442Z,89.07
2023-02-11T09:52:25.354Z,88.51
2023-02-11T09:54:58.402Z,88.18
2023-02-11T09:57:36.493Z,87.59
2023-02-11T10:00:20.652Z,86.64
2023-02-11T10:03:26.807Z,86.12
2023-02-11T10:06:08.077Z,85.44
2023-02-11T10:08:56.859Z,84.93
2023-02-11T10:11:36.965Z,84.22
2023-02-11T10:14:28.789Z,83.49
2023-02-11T10:17:23.375Z,82.80
2023-02-11T10:20:11.530Z,82.58
2023-02-11T10:22:43.239Z,80.99
2023-02-11T10:25:40.283Z,80.28
2023-02-11T10:28:21.617Z,78.77
2023-02-11T10:30:57.618Z,75.59
2023-02-11T10:33:32.489Z,75.22
2023-02-11T10:35:59.316Z,75.62
2023-02-11T10:38:30.931Z,75.99
2023-02-11T10:40:57.459Z,75.20
2023-02-11T10:43:27.330Z,76.13
2023-02-11T10:45:55.877Z,75.93
2023-02-11T10:48:40.420Z,77.69
2023-02-11T10:51:14.660Z,77.85
2023-02-11T10:53:41.866Z,78.61
2023-02-11T10:58:55.272Z,78.89
2023-02-11T11:01:24.869Z,78.96
2023-02-11T11:03:52.900Z,77.41
2023-02-11T11:06:31.554Z,77.24
2023-02-11T11:08:58.502Z,76.08
2023-02-11T11:11:26.489Z,75.45
2023-02-11T11:13:52.901Z,71.06
2023-02-11T11:16:29.662Z,69.06
2023-02-11T11:19:08.195Z,70.12
2023-02-11T11:21:46.328Z,70.08
2023-02-11T11:24:29.322Z,67.25
2023-02-11T11:26:59.602Z,67.97
2023-02-11T11:29:44.021Z,69.44
2023-02-11T11:32:20.738Z,69.91
2023-02-11T11:34:52.607Z,70.61
2023-02-11T11:37:24.493Z,71.26
2023-02-11T11:40:02.297Z,68.49
2023-02-11T11:42:33.954Z,67.83
2023-02-11T11:45:15.378Z,69.38
2023-02-11T11:47:44.562Z,71.29
2023-02-11T11:50:22.892Z,71.96
2023-02-11T11:53:00.129Z,73.00
2023-02-11T11:56:07.554Z,74.76
2023-02-11T11:58:34.747Z,75.01
2023-02-11T12:01:38.101Z,75.97
2023-02-11T12:04:17.772Z,76.37
2023-02-11T12:07:17.453Z,77.18
2023-02-11T12:09:55.883Z,77.41
2023-02-11T12:12:52.822Z,76.87
2023-02-11T12:15:30.245Z,76.74
2023-02-11T12:18:17.966Z,75.54
2023-02-11T12:21:09.716Z,76.03
2023-02-11T12:23:55.061Z,75.36
2023-02-11T12:26:40.251Z,75.74
2023-02-11T12:29:06.685Z,74.94
2023-02-11T12:31:50.775Z,74.13
2023-02-11T12:34:43.357Z,73.76
2023-02-11T12:37:31.029Z,72.90
2023-02-11T12:40:17.321Z,73.22
2023-02-11T12:43:17.749Z,71.43
2023-02-11T12:45:52.788Z,70.87
2023-02-11T12:48:40.867Z,70.37
2023-02-11T12:51:10.137Z,70.69
2023-02-11T12:53:45.476Z,68.96
2023-02-11T12:56:22.897Z,69.04
2023-02-11T12:58:54.204Z,70.22
2023-02-11T13:01:26.842Z,69.80
2023-02-11T13:04:16.514Z,69.94
2023-02-11T13:06:51.730Z,70.84
2023-02-11T13:09:42.028Z,70.89
2023-02-11T13:12:31.311Z,70.37
2023-02-11T13:15:05.422Z,69.85
2023-02-11T13:17:54.525Z,69.89
2023-02-11T13:20:35.248Z,69.48
2023-02-11T13:23:21.209Z,69.65
2023-02-11T13:26:02.552Z,69.95
2023-02-11T13:29:01.116Z,69.29
2023-02-11T13:31:29.982Z,70.34
2023-02-11T13:33:56.708Z,69.33
2023-02-11T13:36:25.827Z,70.50
2023-02-11T13:39:20.780Z,70.02
2023-02-11T13:41:52.470Z,70.99
2023-02-11T13:44:23.735Z,70.57
2023-02-11T13:47:10.480Z,71.10
2023-02-11T13:49:41.304Z,71.06
2023-02-11T13:52:39.528Z,71.16
2023-02-11T13:55:12.017Z,71.10
2023-02-11T13:57:40.414Z,71.02
2023-02-11T14:00:34.992Z,72.65
2023-02-11T14:03:29.122Z,72.38
2023-02-11T14:06:26.432Z,72.98
2023-02-11T14:09:17.276Z,73.35
2023-02-11T14:11:49.859Z,73.60
2023-02-11T14:14:27.496Z,74.54
2023-02-11T14:17:00.026Z,74.29
2023-02-11T14:19:38.521Z,74.41
2023-02-11T14:22:08.173Z,74.98
2023-02-11T14:24:34.823Z,74.71
2023-02-11T14:27:28.158Z,74.74
2023-02-11T14:30:09.305Z,74.95
2023-02-11T14:32:45.680Z,74.74
2023-02-11T14:35:34.913Z,74.76
2023-02-11T14:38:33.999Z,74.81
2023-02-11T14:41:25.242Z,74.65
2023-02-11T14:44:11.121Z,75.32
2023-02-11T14:46:37.820Z,74.39
2023-02-11T14:49:05.502Z,74.56
2023-02-11T14:51:36.411Z,74.98
2023-02-11T14:54:13.300Z,74.32
2023-02-11T14:56:39.781Z,74.24
2023-02-11T14:59:22.394Z,75.20
2023-02-11T15:01:50.779Z,74.56
2023-02-11T15:04:28.026Z,75.21
2023-02-11T15:06:57.439Z,75.93
2023-02-11T15:09:33.946Z,75.65
2023-02-11T15:12:00.900Z,75.87
2023-02-11T15:14:33.392Z,76.29
2023-02-11T15:17:03.702Z,75.83
2023-02-11T15:19:35.716Z,75.92
2023-02-11T15:22:24.770Z,76.41
2023-02-11T15:25:07.973Z,76.51
2023-02-11T15:27:42.221Z,77.41
2023-02-11T15:30:20.996Z,77.86
2023-02-11T15:32:48.775Z,77.89
2023-02-11T15:35:15.311Z,77.86
2023-02-11T15:37:42.006Z,78.28
2023-02-11T15:40:18.826Z,78.55
2023-02-11T15:43:04.926Z,78.92
2023-02-11T15:45:35.944Z,79.07
2023-02-11T15:48:14.305Z,79.16
2023-02-11T15:50:50.098Z,79.57
2023-02-11T15:53:30.577Z,80.22
2023-02-11T15:56:02.895Z,80.64
2023-02-11T15:58:29.540Z,80.59
2023-02-11T16:00:59.682Z,81.00
2023-02-11T16:03:32.393Z,81.13
2023-02-11T16:06:20.105Z,81.63
2023-02-11T16:09:16.940Z,81.43
2023-02-11T16:11:46.222Z,81.94
2023-02-11T16:14:27.139Z,81.94
2023-02-11T16:16:58.700Z,82.13
2023-02-11T16:19:27.093Z,82.15
2023-02-11T16:21:56.085Z,82.60
2023-02-11T16:24:26.271Z,82.58
2023-02-11T16:26:57.006Z,82.75
2023-02-11T16:29:27.110Z,83.31
2023-02-11T16:32:05.655Z,83.56
2023-02-11T16:34:32.113Z,83.58
2023-02-11T16:36:58.791Z,83.42
2023-02-11T16:39:25.301Z,83.65
2023-02-11T16:41:52.358Z,83.68
2023-02-11T16:44:19.307Z,83.83
2023-02-11T16:46:46.081Z,84.08
2023-02-11T16:49:20.415Z,84.05
2023-02-11T16:51:49.874Z,84.25
2023-02-11T16:54:18.207Z,84.20
2023-02-11T16:56:45.228Z,84.01
2023-02-11T16:59:12.443Z,84.33
2023-02-11T17:01:40.845Z,84.36
2023-02-11T17:04:10.634Z,84.28
2023-02-11T17:06:37.161Z,84.44
2023-02-11T17:09:05.688Z,84.39
2023-02-11T17:11:32.168Z,84.23
2023-02-11T17:13:58.824Z,84.34
2023-02-11T17:16:26.248Z,84.46
2023-02-11T17:18:52.855Z,84.80
2023-02-11T17:21:19.390Z,84.58
2023-02-11T17:23:46.008Z,84.62
2023-02-11T17:26:12.515Z,84.85
2023-02-11T17:28:39.004Z,85.29
2023-02-11T17:31:09.532Z,85.54
2023-02-11T17:33:37.800Z,85.23
2023-02-11T17:36:08.596Z,85.46
2023-02-11T17:38:36.486Z,85.36
2023-02-11T17:41:04.788Z,85.42
2023-02-11T17:43:31.860Z,85.43
2023-02-11T17:45:58.481Z,85.31
2023-02-11T17:48:25.023Z,86.12
2023-02-11T17:50:51.502Z,86.11
2023-02-11T17:53:17.998Z,85.79
2023-02-11T17:55:44.647Z,85.99
2023-02-11T17:58:11.216Z,86.05
2023-02-11T18:00:37.747Z,86.26
2023-02-11T18:03:04.374Z,86.25
2023-02-11T18:05:35.731Z,86.41
2023-02-11T18:08:03.178Z,86.11
2023-02-11T18:10:29.753Z,86.58
2023-02-11T18:12:56.298Z,86.63
2023-02-11T18:15:23.249Z,87.04
2023-02-11T18:17:49.773Z,86.82
2023-02-11T18:20:16.324Z,86.92
2023-02-11T18:22:44.129Z,86.68
2023-02-11T18:25:14.768Z,87.17
2023-02-11T18:27:41.847Z,87.14
2023-02-11T18:30:14.051Z,86.83
2023-02-11T18:32:40.567Z,87.26
2023-02-11T18:35:14.856Z,87.46
2023-02-11T18:37:42.632Z,87.01
2023-02-11T18:40:10.419Z,87.16
2023-02-11T18:42:37.026Z,87.45
2023-02-11T18:45:05.441Z,87.44
2023-02-11T18:47:32.342Z,87.00
2023-02-11T18:49:58.969Z,87.41
2023-02-11T18:52:25.969Z,87.59
2023-02-11T18:54:52.457Z,87.25
2023-02-11T18:57:18.887Z,87.33
2023-02-11T18:59:45.392Z,87.50
2023-02-11T19:02:12.038Z,87.38
2023-02-11T19:04:38.558Z,87.52
2023-02-11T19:07:05.196Z,87.16
2023-02-11T19:09:31.814Z,87.46
2023-02-11T19:12:00.785Z,87.47
2023-02-11T19:14:28.452Z,87.19
2023-02-11T19:16:57.399Z,87.36
2023-02-11T19:19:26.806Z,87.20
2023-02-11T19:21:53.941Z,87.00
2023-02-11T19:24:21.952Z,87.34
2023-02-11T19:26:49.743Z,86.84
2023-02-11T19:29:16.789Z,87.05
2023-02-11T19:31:44.174Z,87.03
2023-02-11T19:34:15.357Z,86.91
2023-02-11T19:36:42.349Z,87.04
2023-02-11T19:39:09.619Z,86.99
2023-02-11T19:41:36.498Z,86.87
2023-02-11T19:44:04.630Z,86.90
2023-02-11T19:46:33.611Z,87.33
2023-02-11T19:49:00.928Z,87.04
2023-02-11T19:51:28.034Z,86.71
2023-02-11T19:53:54.497Z,86.66
2023-02-11T19:56:22.364Z,87.01
2023-02-11T19:58:48.915Z,86.80
2023-02-11T20:01:18.853Z,86.71
2023-02-11T20:03:49.802Z,86.57
2023-02-11T20:06:23.379Z,86.60
2023-02-11T20:08:58.226Z,86.62
2023-02-11T20:11:25.805Z,86.64
2023-02-11T20:13:52.235Z,87.05
2023-02-11T20:16:21.435Z,86.72
2023-02-11T20:18:49.872Z,86.60
2023-02-11T20:21:18.545Z,87.45
2023-02-11T20:23:46.433Z,87.26
2023-02-11T20:26:21.499Z,87.05
2023-02-11T20:28:49.477Z,87.34
2023-02-11T20:31:16.829Z,87.06
2023-02-11T20:33:44.234Z,86.90
2023-02-11T20:36:20.292Z,86.92
2023-02-11T20:38:47.928Z,87.30
2023-02-11T20:41:26.580Z,86.92
2023-02-11T20:43:54.948Z,86.94
2023-02-11T20:46:24.738Z,87.12
2023-02-11T20:48:52.239Z,87.14
2023-02-11T20:51:23.451Z,87.55
2023-02-11T20:53:51.219Z,87.02
2023-02-11T20:56:21.513Z,87.51
2023-02-11T20:58:48.892Z,87.09
2023-02-11T21:01:21.359Z,86.99
2023-02-11T21:03:58.074Z,87.36
2023-02-11T21:06:27.534Z,87.05
2023-02-11T21:08:54.194Z,87.82
2023-02-11T21:11:21.085Z,87.15
2023-02-11T21:13:48.665Z,87.62
2023-02-11T21:16:22.374Z,87.56
2023-02-11T21:18:50.163Z,87.68
2023-02-11T21:21:18.272Z,87.70
2023-02-11T21:23:45.884Z,87.62
2023-02-11T21:26:13.016Z,87.23
2023-02-11T21:28:41.076Z,87.28
2023-02-11T21:31:09.524Z,87.25
2023-02-11T21:33:36.034Z,87.10
2023-02-11T21:36:04.426Z,87.16
2023-02-11T21:38:30.927Z,87.94
2023-02-11T21:41:03.380Z,87.32
2023-02-11T21:43:29.944Z,87.57
2023-02-11T21:45:56.692Z,87.53
2023-02-11T21:48:25.552Z,87.53
2023-02-11T21:50:52.883Z,87.53
2023-02-11T21:53:19.756Z,88.01
2023-02-11T21:55:46.219Z,87.48
2023-02-11T21:58:13.154Z,87.92
2023-02-11T22:00:39.628Z,87.58
2023-02-11T22:03:06.200Z,87.86
2023-02-11T22:05:32.702Z,87.81
2023-02-11T22:07:59.233Z,87.71
2023-02-11T22:10:25.645Z,88.01
2023-02-11T22:12:52.119Z,87.62
2023-02-11T22:15:18.699Z,88.05
2023-02-11T22:17:45.191Z,87.74
2023-02-11T22:20:11.939Z,88.00
2023-02-11T22:22:38.449Z,88.08
2023-02-11T22:25:05.396Z,87.70
2023-02-11T22:27:31.963Z,87.92
2023-02-11T22:29:58.385Z,88.21
2023-02-11T22:32:24.871Z,88.09
2023-02-11T22:34:53.284Z,88.26
2023-02-11T22:37:20.451Z,87.94
2023-02-11T22:39:47.203Z,87.75
2023-02-11T22:42:13.649Z,88.39
2023-02-11T22:44:40.091Z,87.86
2023-02-11T22:47:06.668Z,88.28
2023-02-11T22:49:33.212Z,87.83
2023-02-11T22:51:59.938Z,88.37
2023-02-11T22:54:26.617Z,88.67
2023-02-11T22:56:53.568Z,88.34
2023-02-11T22:59:20.596Z,88.12
2023-02-11T23:01:47.197Z,87.96
2023-02-11T23:04:16.819Z,88.38
2023-02-11T23:06:43.424Z,88.71
2023-02-11T23:09:12.272Z,88.49
2023-02-11T23:11:39.281Z,88.47
2023-02-11T23:14:05.899Z,88.44
2023-02-11T23:16:34.522Z,88.77
2023-02-11T23:19:04.979Z,88.44
2023-02-11T23:21:33.457Z,89.11
2023-02-11T23:24:05.812Z,89.00
2023-02-11T23:26:32.352Z,88.51
2023-02-11T23:28:59.409Z,88.83
2023-02-11T23:31:29.645Z,88.88
2023-02-11T23:33:56.378Z,88.76
2023-02-11T23:36:23.556Z,88.87
2023-02-11T23:38:50.147Z,88.78
2023-02-11T23:41:17.567Z,88.64
2023-02-11T23:43:48.703Z,89.09
2023-02-11T23:46:15.190Z,89.20
2023-02-11T23:48:41.709Z,88.95
2023-02-11T23:51:09.732Z,89.31
2023-02-11T23:53:38.075Z,89.20
2023-02-11T23:56:15.067Z,89.08
2023-02-11T23:58:41.677Z,88.62
